createdAt,value
2023-01-30T00:07:54.580Z,52
2023-01-30T00:37:56.970Z,50
2023-01-30T01:07:53.776Z,51
2023-01-30T01:37:48.664Z,51
2023-01-30T02:07:45.053Z,56
2023-01-30T02:37:41.100Z,54
2023-01-30T03:07:38.319Z,56
2023-01-30T03:37:38.357Z,50
2023-01-30T04:07:43.057Z,47
2023-01-30T04:37:36.661Z,48
2023-01-30T05:07:37.228Z,45
2023-01-30T05:37:41.713Z,42
2023-01-30T06:07:38.145Z,40
2023-01-30T06:37:35.231Z,41
2023-01-30T07:07:30.918Z,39
2023-01-30T07:37:34.520Z,39
2023-01-30T08:08:40.354Z,39
2023-01-30T08:38:35.629Z,39
2023-01-30T09:08:33.139Z,38
2023-01-30T09:38:31.389Z,54
2023-01-30T10:08:35.057Z,53
2023-01-30T10:38:37.360Z,41
2023-01-30T11:08:37.102Z,42
2023-01-30T11:38:31.963Z,40
2023-01-30T12:08:35.826Z,40
2023-01-30T12:38:37.196Z,40
2023-01-30T13:08:30.350Z,43
2023-01-30T13:38:30.480Z,57
2023-01-30T14:08:29.736Z,46
2023-01-30T14:38:32.692Z,42
2023-01-30T15:08:27.067Z,44
2023-01-30T15:38:31.057Z,43
2023-01-30T16:08:30.477Z,57
2023-01-30T16:38:29.578Z,43
2023-01-30T17:08:27.291Z,50
2023-01-30T17:38:28.952Z,43
2023-01-30T18:08:26.471Z,41
2023-01-30T18:38:25.492Z,41
2023-01-30T19:08:20.395Z,39
2023-01-30T19:38:16.639Z,38
2023-01-30T20:08:15.578Z,37
2023-01-30T20:38:13.278Z,36
2023-01-30T21:08:11.608Z,35
2023-01-30T21:38:15.709Z,36
2023-01-30T22:08:11.913Z,37
2023-01-30T22:38:12.098Z,35
2023-01-30T23:08:08.051Z,34
2023-01-30T23:38:11.136Z,33
